createdAt,value
2019-01-25T00:01:15.690Z,20.23
2019-01-25T00:06:37.881Z,22.20
2019-01-25T00:12:00.231Z,23.20
2019-01-25T00:17:22.382Z,20.67
2019-01-25T00:22:44.596Z,21.00
2019-01-25T00:28:06.793Z,21.43
2019-01-25T00:33:09.481Z,20.73
2019-01-25T00:38:12.156Z,21.90
2019-01-25T00:43:14.836Z,20.20
2019-01-25T00:48:37.006Z,21.03
2019-01-25T00:53:59.203Z,21.77
2019-01-25T00:59:21.385Z,22.37
2019-01-25T01:04:43.563Z,20.90
2019-01-25T01:09:58.472Z,19.60
2019-01-25T01:15:01.126Z,21.23
2019-01-25T01:20:23.351Z,18.97
2019-01-25T01:25:45.531Z,22.70
2019-01-25T01:31:07.713Z,21.83
2019-01-25T01:36:29.927Z,21.07
2019-01-25T01:47:02.309Z,22.10
2019-01-25T01:52:24.468Z,22.70
2019-01-25T01:57:46.721Z,21.37
2019-01-25T02:03:08.886Z,21.50
2019-01-25T02:08:24.413Z,22.97
2019-01-25T02:13:46.599Z,23.60
2019-01-25T02:19:08.784Z,20.33
2019-01-25T02:24:50.497Z,21.73
2019-01-25T02:30:15.672Z,23.47
2019-01-25T02:35:37.948Z,22.60
2019-01-25T02:41:00.129Z,22.97
2019-01-25T02:46:02.898Z,21.57
2019-01-25T02:51:05.633Z,23.60
2019-01-25T02:56:48.119Z,21.07
2019-01-25T03:02:10.380Z,22.93
2019-01-25T03:07:26.115Z,22.47
2019-01-25T03:12:49.249Z,21.00
2019-01-25T03:18:04.410Z,21.47
2019-01-25T03:23:07.181Z,22.53
2019-01-25T03:28:29.360Z,23.97
2019-01-25T03:33:51.553Z,23.13
2019-01-25T03:39:13.726Z,24.60
2019-01-25T03:44:28.996Z,23.37
2019-01-25T03:49:51.365Z,23.07
2019-01-25T03:55:13.767Z,22.97
2019-01-25T04:00:35.975Z,21.03
2019-01-25T04:05:58.139Z,22.83
2019-01-25T04:11:13.040Z,21.93
2019-01-25T04:16:35.233Z,21.50
2019-01-25T04:21:57.433Z,22.80
2019-01-25T04:27:19.624Z,23.07
2019-01-25T04:32:41.804Z,22.20
2019-01-25T04:38:04.017Z,22.60
2019-01-25T04:43:26.202Z,22.20
2019-01-25T04:48:48.380Z,22.50
2019-01-25T04:54:10.557Z,22.60
2019-01-25T04:59:32.742Z,22.43
2019-01-25T05:04:54.925Z,20.63
2019-01-25T05:10:10.360Z,20.20
2019-01-25T05:15:32.550Z,21.70
2019-01-25T05:20:35.236Z,19.17
2019-01-25T05:25:57.422Z,19.90
2019-01-25T05:31:22.832Z,22.87
2019-01-25T05:36:45.025Z,20.40
2019-01-25T05:42:07.308Z,20.10
2019-01-25T05:47:29.506Z,20.23
2019-01-25T05:52:51.722Z,16.50
2019-01-25T05:58:00.098Z,18.03
2019-01-25T06:03:22.737Z,20.07
2019-01-25T06:08:32.464Z,19.50
2019-01-25T06:13:54.637Z,16.40
2019-01-25T06:19:16.819Z,15.97
2019-01-25T06:24:38.999Z,17.73
2019-01-25T06:30:01.288Z,18.63
2019-01-25T06:35:23.469Z,19.60
2019-01-25T06:40:45.650Z,19.90
2019-01-25T06:45:49.847Z,17.30
2019-01-25T06:51:12.399Z,17.97
2019-01-25T06:56:34.583Z,18.27
2019-01-25T07:02:16.369Z,18.27
2019-01-25T07:07:34.395Z,17.30
2019-01-25T07:12:56.602Z,16.10
2019-01-25T07:17:59.270Z,16.60
2019-01-25T07:23:21.468Z,15.67
2019-01-25T07:28:43.646Z,15.03
2019-01-25T07:34:05.832Z,14.10
2019-01-25T07:39:28.118Z,13.90
2019-01-25T07:44:50.366Z,12.70
2019-01-25T07:49:53.093Z,12.33
2019-01-25T07:54:55.740Z,14.87
2019-01-25T07:59:58.443Z,14.40
2019-01-25T08:05:20.624Z,14.30
2019-01-25T08:10:35.750Z,13.40
2019-01-25T08:15:58.067Z,15.07
2019-01-25T08:21:00.738Z,14.10
2019-01-25T08:26:22.940Z,16.17
2019-01-25T08:31:45.205Z,16.63
2019-01-25T08:37:07.385Z,14.90
2019-01-25T08:42:15.407Z,15.00
2019-01-25T08:47:14.732Z,15.07
2019-01-25T08:52:17.415Z,17.07
2019-01-25T08:57:20.113Z,15.90
2019-01-25T09:02:42.274Z,14.73
2019-01-25T09:07:57.772Z,17.07
2019-01-25T09:13:19.953Z,15.33
2019-01-25T09:18:42.137Z,16.10
2019-01-25T09:24:04.322Z,15.80
2019-01-25T09:29:07.012Z,17.37
2019-01-25T09:34:09.699Z,15.73
2019-01-25T09:39:12.378Z,16.23
2019-01-25T09:44:15.046Z,17.30
2019-01-25T09:49:37.231Z,18.60
2019-01-25T09:54:59.413Z,17.23
2019-01-25T10:00:46.287Z,16.03
2019-01-25T10:06:08.456Z,16.97
2019-01-25T10:11:24.062Z,14.80
2019-01-25T10:16:46.253Z,16.40
2019-01-25T10:21:48.928Z,16.70
2019-01-25T10:27:11.119Z,16.23
2019-01-25T10:32:13.798Z,16.50
2019-01-25T10:37:35.972Z,17.57
2019-01-25T10:42:58.152Z,14.47
2019-01-25T10:48:00.869Z,15.17
2019-01-25T10:53:44.367Z,12.73
2019-01-25T10:59:06.583Z,12.80
2019-01-25T11:04:28.773Z,14.40
2019-01-25T11:09:37.906Z,13.40
2019-01-25T11:14:56.979Z,14.50
2019-01-25T11:20:20.472Z,14.20
2019-01-25T11:25:42.674Z,14.33
2019-01-25T11:30:45.342Z,15.10
2019-01-25T11:36:07.557Z,14.50
2019-01-25T11:41:29.759Z,15.10
2019-01-25T11:46:51.938Z,15.77
2019-01-25T11:52:14.125Z,16.47
2019-01-25T11:57:36.305Z,15.43
2019-01-25T12:02:58.483Z,14.60
2019-01-25T12:08:13.551Z,15.43
2019-01-25T12:13:16.591Z,14.53
2019-01-25T12:18:19.384Z,13.40
2019-01-25T12:23:41.586Z,13.00
2019-01-25T12:28:44.263Z,12.93
2019-01-25T12:33:46.946Z,14.20
2019-01-25T12:39:09.398Z,13.30
2019-01-25T12:44:31.575Z,13.83
2019-01-25T12:49:53.766Z,13.33
2019-01-25T12:54:56.450Z,12.90
2019-01-25T13:00:40.156Z,13.50
2019-01-25T13:05:43.319Z,14.63
2019-01-25T13:11:00.501Z,13.13
2019-01-25T13:16:22.679Z,13.40
2019-01-25T13:21:25.366Z,13.20
2019-01-25T13:26:47.562Z,12.70
2019-01-25T13:32:14.442Z,13.00
2019-01-25T13:37:33.945Z,13.80
2019-01-25T13:42:36.713Z,13.93
2019-01-25T13:47:39.410Z,13.47
2019-01-25T13:52:42.110Z,13.10
2019-01-25T13:57:44.871Z,14.47
2019-01-25T14:02:47.545Z,13.90
2019-01-25T14:08:03.183Z,15.03
2019-01-25T14:13:05.953Z,15.60
2019-01-25T14:18:28.157Z,15.33
2019-01-25T14:23:50.350Z,13.63
2019-01-25T14:29:12.622Z,14.60
2019-01-25T14:34:34.825Z,14.60
2019-01-25T14:39:37.515Z,13.20
2019-01-25T14:44:59.705Z,13.43
2019-01-25T14:50:22.319Z,11.80
2019-01-25T14:55:44.500Z,11.37
2019-01-25T15:00:47.283Z,13.57
2019-01-25T15:06:09.472Z,12.40
2019-01-25T15:11:24.783Z,11.73
2019-01-25T15:16:46.970Z,11.40
2019-01-25T15:22:09.154Z,12.30
2019-01-25T15:27:11.825Z,11.20
2019-01-25T15:32:14.513Z,11.23
2019-01-25T15:37:36.693Z,10.13
2019-01-25T15:42:58.896Z,10.63
2019-01-25T15:48:21.078Z,10.60
2019-01-25T15:53:43.276Z,11.80
2019-01-25T15:59:05.502Z,11.17
2019-01-25T16:04:08.190Z,13.37
2019-01-25T16:09:23.696Z,13.47
2019-01-25T16:14:46.053Z,13.37
2019-01-25T16:20:10.129Z,13.53
2019-01-25T16:25:33.512Z,13.93
2019-01-25T16:30:55.705Z,14.70
2019-01-25T16:36:17.925Z,16.57
2019-01-25T16:41:40.108Z,16.73
2019-01-25T16:47:02.303Z,16.40
2019-01-25T16:52:25.492Z,18.13
2019-01-25T16:57:47.829Z,17.60
2019-01-25T17:03:10.816Z,17.90
2019-01-25T17:08:26.225Z,17.33
2019-01-25T17:13:48.406Z,17.90
2019-01-25T17:18:51.106Z,17.97
2019-01-25T17:24:13.287Z,17.40
2019-01-25T17:29:35.486Z,16.93
2019-01-25T17:34:57.740Z,18.87
2019-01-25T17:40:00.432Z,18.90
2019-01-25T17:45:22.648Z,19.40
2019-01-25T17:50:44.835Z,19.17
2019-01-25T17:56:07.244Z,20.43
2019-01-25T18:01:29.616Z,20.67
2019-01-25T18:06:53.164Z,18.53
2019-01-25T18:12:09.392Z,20.43
2019-01-25T18:17:51.588Z,19.57
2019-01-25T18:23:35.696Z,18.40
2019-01-25T18:29:19.738Z,17.83
2019-01-25T18:34:41.983Z,18.30
2019-01-25T18:40:07.256Z,19.10
2019-01-25T18:45:31.174Z,16.30
2019-01-25T18:50:54.297Z,17.87
2019-01-25T18:56:18.730Z,17.27
2019-01-25T19:01:41.837Z,16.83
2019-01-25T19:07:05.077Z,17.20
2019-01-25T19:12:21.514Z,16.50
2019-01-25T19:17:43.776Z,17.10
2019-01-25T19:23:05.960Z,16.23
2019-01-25T19:28:28.137Z,16.90
2019-01-25T19:33:30.948Z,16.47
2019-01-25T19:38:54.277Z,15.47
2019-01-25T19:44:16.550Z,15.60
2019-01-25T19:49:19.871Z,13.43
2019-01-25T19:54:42.620Z,15.57
2019-01-25T19:59:47.713Z,13.97
2019-01-25T20:05:11.720Z,11.97
2019-01-25T20:10:36.599Z,13.77
2019-01-25T20:15:59.983Z,12.67
2019-01-25T20:21:23.559Z,10.83
2019-01-25T20:26:46.681Z,10.60
2019-01-25T20:32:09.161Z,9.80
2019-01-25T20:37:31.972Z,8.43
2019-01-25T20:42:54.751Z,9.40
2019-01-25T20:48:16.979Z,9.67
2019-01-25T20:53:39.190Z,9.50
2019-01-25T20:59:01.401Z,9.20
2019-01-25T21:04:04.291Z,7.80
2019-01-25T21:09:09.644Z,8.60
2019-01-25T21:14:31.840Z,8.30
2019-01-25T21:19:54.037Z,8.17
2019-01-25T21:25:16.454Z,8.73
2019-01-25T21:30:38.760Z,8.43
2019-01-25T21:36:00.958Z,8.33
2019-01-25T21:41:23.142Z,6.90
2019-01-25T21:46:45.349Z,7.60
2019-01-25T21:51:48.403Z,8.57
2019-01-25T21:56:51.105Z,8.40
2019-01-25T22:07:09.968Z,8.50
2019-01-25T22:12:12.671Z,7.87
2019-01-25T22:17:34.877Z,8.47
2019-01-25T22:22:37.594Z,7.27
2019-01-25T22:27:59.790Z,6.90
2019-01-25T22:33:02.482Z,6.93
2019-01-25T22:38:24.870Z,7.40
2019-01-25T22:43:27.574Z,7.43
2019-01-25T22:48:30.285Z,7.23
2019-01-25T22:53:33.002Z,6.67
2019-01-25T22:59:07.514Z,7.63
2019-01-25T23:04:42.361Z,7.03
2019-01-25T23:10:19.300Z,6.10
2019-01-25T23:15:22.001Z,7.03
2019-01-25T23:20:44.193Z,6.30
2019-01-25T23:26:06.389Z,7.27
2019-01-25T23:31:28.577Z,7.33
2019-01-25T23:36:50.768Z,6.60
2019-01-25T23:41:53.454Z,7.27
2019-01-25T23:47:15.647Z,7.57
2019-01-25T23:52:37.853Z,6.43
2019-01-25T23:58:00.056Z,6.07
